createdAt,value
2022-08-28T00:03:48.023Z,8.48
2022-08-28T00:14:52.096Z,7.72
2022-08-28T00:25:47.812Z,7.60
2022-08-28T00:30:46.446Z,6.50
2022-08-28T00:35:51.633Z,6.13
2022-08-28T00:40:46.835Z,7.38
2022-08-28T00:45:41.713Z,9.73
2022-08-28T00:50:51.201Z,7.22
2022-08-28T00:55:44.854Z,7.15
2022-08-28T01:00:42.234Z,8.38
2022-08-28T01:05:37.802Z,6.15
2022-08-28T01:10:34.618Z,9.15
2022-08-28T01:15:35.096Z,10.10
2022-08-28T01:20:35.378Z,6.85
2022-08-28T01:25:35.430Z,8.43
2022-08-28T01:30:29.676Z,8.60
2022-08-28T01:35:28.466Z,6.82
2022-08-28T01:40:30.602Z,8.20
2022-08-28T01:45:26.304Z,8.43
2022-08-28T01:50:22.858Z,8.75
2022-08-28T01:55:16.595Z,8.13
2022-08-28T02:00:16.866Z,9.40
2022-08-28T02:05:13.275Z,7.93
2022-08-28T02:10:09.235Z,10.23
2022-08-28T02:15:02.675Z,8.88
2022-08-28T02:19:56.064Z,8.45
2022-08-28T02:24:50.779Z,7.82
2022-08-28T02:29:44.331Z,8.18
2022-08-28T02:34:39.171Z,8.43
2022-08-28T02:39:32.577Z,8.35
2022-08-28T02:44:27.382Z,8.07
2022-08-28T02:49:20.750Z,9.27
2022-08-28T02:54:14.050Z,7.80
2022-08-28T02:59:11.927Z,9.50
2022-08-28T03:04:07.137Z,10.40
2022-08-28T03:09:01.036Z,8.98
2022-08-28T03:13:55.491Z,10.02
2022-08-28T03:18:48.895Z,8.40
2022-08-28T03:23:43.778Z,10.70
2022-08-28T03:28:41.495Z,10.07
2022-08-28T03:33:35.388Z,9.85
2022-08-28T03:38:29.371Z,8.30
2022-08-28T03:43:27.426Z,8.63
2022-08-28T03:48:21.170Z,8.90
2022-08-28T03:53:15.096Z,8.82
2022-08-28T03:58:08.553Z,11.40
2022-08-28T04:03:04.550Z,12.65
2022-08-28T04:07:58.129Z,14.13
2022-08-28T04:12:51.530Z,12.73
2022-08-28T04:17:45.048Z,13.63
2022-08-28T04:22:40.129Z,12.00
2022-08-28T04:27:33.581Z,11.77
2022-08-28T04:32:27.366Z,14.25
2022-08-28T04:37:20.786Z,11.98
2022-08-28T04:42:17.710Z,13.57
2022-08-28T04:47:11.077Z,13.30
2022-08-28T04:52:05.395Z,16.95
2022-08-28T04:56:58.766Z,13.77
2022-08-28T05:01:53.897Z,16.20
2022-08-28T05:06:48.225Z,14.82
2022-08-28T05:11:41.672Z,17.23
2022-08-28T05:16:43.006Z,18.55
2022-08-28T05:21:38.806Z,18.52
2022-08-28T05:26:32.295Z,13.80
2022-08-28T05:31:28.786Z,17.17
2022-08-28T05:36:25.371Z,16.60
2022-08-28T05:41:23.247Z,19.05
2022-08-28T05:46:17.816Z,17.10
2022-08-28T05:51:15.233Z,16.00
2022-08-28T05:56:09.781Z,17.25
2022-08-28T06:01:13.353Z,16.55
2022-08-28T06:06:07.834Z,17.50
2022-08-28T06:11:02.936Z,16.42
2022-08-28T06:15:56.882Z,13.95
2022-08-28T06:20:52.992Z,17.38
2022-08-28T06:25:50.223Z,16.98
2022-08-28T06:31:08.949Z,15.57
2022-08-28T06:35:59.421Z,11.88
2022-08-28T06:40:56.587Z,16.20
2022-08-28T06:45:54.523Z,14.98
2022-08-28T06:50:50.866Z,12.50
2022-08-28T06:55:48.990Z,11.50
2022-08-28T07:00:42.941Z,13.77
2022-08-28T07:05:36.404Z,11.82
2022-08-28T07:10:31.301Z,11.88
2022-08-28T07:15:26.125Z,10.55
2022-08-28T07:20:19.846Z,11.93
2022-08-28T07:25:17.137Z,9.02
2022-08-28T07:30:13.589Z,11.93
2022-08-28T07:35:10.451Z,10.07
2022-08-28T07:40:04.973Z,10.55
2022-08-28T07:45:01.350Z,10.40
2022-08-28T07:49:54.678Z,10.27
2022-08-28T07:54:49.428Z,10.55
2022-08-28T07:59:43.024Z,10.65
2022-08-28T08:04:36.437Z,9.75
2022-08-28T08:09:29.913Z,9.60
2022-08-28T08:14:24.957Z,9.52
2022-08-28T08:19:20.353Z,10.05
2022-08-28T08:24:19.611Z,10.40
2022-08-28T08:29:14.294Z,10.63
2022-08-28T08:34:09.215Z,11.05
2022-08-28T08:39:06.458Z,12.32
2022-08-28T08:44:11.549Z,16.63
2022-08-28T08:49:15.100Z,10.13
2022-08-28T08:54:13.963Z,10.30
2022-08-28T08:59:15.236Z,10.27
2022-08-28T09:04:26.807Z,10.38
2022-08-28T09:09:32.576Z,11.55
2022-08-28T09:14:37.970Z,13.25
2022-08-28T09:19:33.255Z,9.27
2022-08-28T09:24:30.522Z,9.38
2022-08-28T09:29:43.628Z,9.50
2022-08-28T09:34:39.250Z,9.57
2022-08-28T09:39:35.675Z,10.60
2022-08-28T09:44:29.145Z,9.82
2022-08-28T09:49:30.027Z,8.35
2022-08-28T09:54:34.045Z,10.52
2022-08-28T09:59:30.216Z,8.68
2022-08-28T10:04:57.211Z,8.10
2022-08-28T10:10:07.590Z,7.65
2022-08-28T10:15:15.674Z,7.75
2022-08-28T10:20:18.857Z,7.97
2022-08-28T10:25:25.189Z,6.78
2022-08-28T10:30:23.681Z,7.20
2022-08-28T10:35:24.017Z,6.95
2022-08-28T10:40:27.524Z,6.45
2022-08-28T10:45:26.033Z,6.28
2022-08-28T10:50:26.500Z,6.13
2022-08-28T10:55:29.386Z,5.65
2022-08-28T11:00:26.387Z,7.32
2022-08-28T11:05:24.334Z,6.15
2022-08-28T11:10:41.982Z,6.35
2022-08-28T11:15:53.516Z,6.10
2022-08-28T11:21:10.976Z,6.00
2022-08-28T11:26:13.493Z,5.72
2022-08-28T11:31:35.496Z,6.00
2022-08-28T11:37:02.957Z,6.00
2022-08-28T11:42:37.686Z,7.90
2022-08-28T11:47:52.234Z,6.68
2022-08-28T11:53:34.834Z,6.15
2022-08-28T11:58:42.309Z,5.47
2022-08-28T12:03:41.680Z,5.18
2022-08-28T12:09:11.638Z,5.45
2022-08-28T12:14:07.447Z,5.50
2022-08-28T12:19:04.915Z,5.25
2022-08-28T12:24:09.827Z,7.88
2022-08-28T12:29:29.409Z,5.65
2022-08-28T12:34:35.953Z,5.03
2022-08-28T12:39:33.658Z,4.65
2022-08-28T12:44:33.645Z,4.63
2022-08-28T12:49:32.835Z,5.38
2022-08-28T12:54:26.173Z,4.90
2022-08-28T12:59:36.273Z,6.10
2022-08-28T13:04:35.951Z,5.25
2022-08-28T13:09:30.730Z,5.20
2022-08-28T13:14:43.182Z,5.00
2022-08-28T13:19:38.277Z,5.22
2022-08-28T13:24:46.390Z,4.75
2022-08-28T13:29:57.386Z,6.45
2022-08-28T13:35:29.955Z,7.10
2022-08-28T13:45:45.038Z,5.18
2022-08-28T13:50:40.117Z,4.85
2022-08-28T13:55:34.601Z,4.82
2022-08-28T14:00:30.802Z,5.03
2022-08-28T14:05:25.766Z,4.25
2022-08-28T14:10:19.826Z,5.65
2022-08-28T14:15:13.988Z,4.10
2022-08-28T14:20:08.583Z,4.95
2022-08-28T14:25:04.650Z,4.78
2022-08-28T14:29:58.239Z,4.15
2022-08-28T14:34:51.765Z,3.53
2022-08-28T14:39:45.295Z,3.63
2022-08-28T14:44:40.047Z,3.70
2022-08-28T14:49:33.425Z,3.53
2022-08-28T14:54:27.886Z,3.70
2022-08-28T14:59:24.792Z,3.35
2022-08-28T15:04:26.104Z,3.42
2022-08-28T15:09:20.138Z,3.83
2022-08-28T15:14:13.652Z,2.75
2022-08-28T15:19:12.120Z,3.75
2022-08-28T15:24:09.725Z,2.45
2022-08-28T15:29:04.054Z,2.70
2022-08-28T15:33:57.848Z,2.83
2022-08-28T15:39:09.390Z,3.10
2022-08-28T15:44:05.623Z,3.67
2022-08-28T15:48:59.290Z,2.63
2022-08-28T15:53:53.130Z,2.90
2022-08-28T15:58:46.814Z,3.38
2022-08-28T16:03:42.016Z,3.05
2022-08-28T16:08:35.463Z,3.40
2022-08-28T16:13:28.875Z,3.35
2022-08-28T16:18:22.928Z,2.72
2022-08-28T16:23:17.723Z,3.20
2022-08-28T16:28:11.158Z,3.33
2022-08-28T16:33:09.359Z,2.97
2022-08-28T16:38:03.048Z,2.72
2022-08-28T16:42:58.203Z,3.15
2022-08-28T16:47:52.201Z,3.13
2022-08-28T16:52:45.670Z,2.72
2022-08-28T16:57:39.589Z,3.08
2022-08-28T17:02:34.572Z,2.90
2022-08-28T17:07:29.030Z,3.40
2022-08-28T17:12:22.924Z,3.20
2022-08-28T17:17:16.460Z,3.28
2022-08-28T17:22:29.128Z,2.90
2022-08-28T17:27:23.447Z,3.15
2022-08-28T17:32:16.979Z,4.28
2022-08-28T17:37:12.032Z,3.72
2022-08-28T17:42:06.173Z,4.07
2022-08-28T17:46:59.586Z,3.30
2022-08-28T17:51:53.400Z,4.57
2022-08-28T17:56:48.619Z,3.70
2022-08-28T18:01:42.997Z,3.60
2022-08-28T18:06:36.431Z,4.55
2022-08-28T18:11:30.246Z,5.18
2022-08-28T18:16:30.385Z,4.72
2022-08-28T18:21:24.846Z,4.03
2022-08-28T18:26:18.416Z,4.13
2022-08-28T18:31:11.881Z,3.85
2022-08-28T18:36:09.066Z,5.18
2022-08-28T18:41:03.244Z,5.50
2022-08-28T18:47:25.237Z,4.20
2022-08-28T19:42:01.560Z,4.82
2022-08-28T19:46:56.297Z,4.82
2022-08-28T19:51:52.785Z,5.57
2022-08-28T19:56:46.302Z,6.72
2022-08-28T20:02:42.504Z,5.90
2022-08-28T20:07:38.824Z,4.97
2022-08-28T20:12:54.119Z,5.20
2022-08-28T20:17:50.327Z,5.70
2022-08-28T20:22:45.343Z,5.40
2022-08-28T20:27:39.364Z,5.35
2022-08-28T20:32:33.006Z,5.25
2022-08-28T20:37:29.532Z,5.40
2022-08-28T20:42:31.732Z,5.00
2022-08-28T20:47:25.791Z,5.22
2022-08-28T20:52:19.502Z,5.50
2022-08-28T20:57:16.200Z,4.97
2022-08-28T21:02:15.094Z,5.35
2022-08-28T21:07:09.802Z,6.03
2022-08-28T21:12:03.610Z,5.88
2022-08-28T21:16:57.438Z,7.68
2022-08-28T21:21:52.187Z,5.28
2022-08-28T21:26:49.189Z,5.57
2022-08-28T21:31:44.433Z,5.93
2022-08-28T21:36:39.683Z,7.15
2022-08-28T21:41:34.474Z,8.50
2022-08-28T21:46:28.617Z,9.85
2022-08-28T21:51:22.212Z,7.68
2022-08-28T21:56:19.779Z,5.82
2022-08-28T22:01:16.096Z,6.13
2022-08-28T22:06:12.124Z,6.20
2022-08-28T22:11:05.687Z,7.47
2022-08-28T22:15:59.190Z,8.65
2022-08-28T22:21:11.529Z,7.75
2022-08-28T22:26:12.079Z,6.65
2022-08-28T22:31:06.039Z,8.75
2022-08-28T22:36:01.117Z,9.32
2022-08-28T22:40:55.158Z,7.72
2022-08-28T22:45:49.384Z,7.97
2022-08-28T22:50:43.657Z,8.30
2022-08-28T22:55:43.207Z,6.78
2022-08-28T23:00:36.977Z,13.98
2022-08-28T23:05:31.524Z,10.75
2022-08-28T23:10:42.152Z,7.95
2022-08-28T23:15:40.018Z,5.97
2022-08-28T23:20:33.568Z,5.93
2022-08-28T23:25:27.341Z,6.20
2022-08-28T23:30:21.873Z,5.82
2022-08-28T23:35:18.355Z,7.03
2022-08-28T23:40:15.958Z,7.93
2022-08-28T23:45:10.781Z,7.03
2022-08-28T23:50:05.099Z,7.60
2022-08-28T23:55:01.195Z,6.05
2022-08-28T23:59:54.613Z,5.70
